Indian Gap, Texas
Current Conditions -  °F | °C
As of 4:15 PM on Thursday 23 Oct 2014 (Local Time) from KMNZ Reporting Station
Overcast Overcast  
Wind Chill: 81°   Ceiling: 5500
Heat Index: 81°   Visibility: 10mi
Dew Point: 58°   Wind: 6mph
Humidity: 45%   Direction: 140°SE
Pressure: 30.08"   Gusts: NA
Location:  31.6401°N, 98.1198°W
Report Text: KMNZ 232115Z AUTO 14005KT 10SM BKN055 BKN065 OVC090 27/14 A3008 RMK AO2 T02710142
Loading
Personal Weather Stations






























Interactive Weather Map
Tropical Storm Tracking
New forecast layout! Learn more

10-Day Weather Forecast

Advertisements
Track Severe Weather on mobile